createdAt,value
2017-01-30T00:00:23.858Z,0
2017-01-30T00:01:24.257Z,0
2017-01-30T00:02:24.278Z,0
2017-01-30T00:03:23.898Z,0
2017-01-30T00:04:24.331Z,0
2017-01-30T00:05:24.308Z,0
2017-01-30T00:06:24.316Z,0
2017-01-30T00:07:24.328Z,0
2017-01-30T00:08:24.343Z,0
2017-01-30T00:09:24.386Z,0
2017-01-30T00:10:23.965Z,0
2017-01-30T00:11:24.362Z,0
2017-01-30T00:12:24.386Z,0
2017-01-30T00:13:24.390Z,0
2017-01-30T00:14:24.405Z,0
2017-01-30T00:15:24.415Z,0
2017-01-30T00:16:24.428Z,0
2017-01-30T00:17:24.437Z,0
2017-01-30T00:18:24.454Z,0
2017-01-30T00:19:24.460Z,0
2017-01-30T00:20:24.480Z,0
2017-01-30T00:21:24.483Z,0
2017-01-30T00:22:24.491Z,0
2017-01-30T00:23:24.505Z,0
2017-01-30T00:24:24.514Z,0
2017-01-30T00:25:24.519Z,0
2017-01-30T00:26:24.531Z,0
2017-01-30T00:27:23.758Z,0
2017-01-30T00:28:24.159Z,0
2017-01-30T00:29:24.572Z,0
2017-01-30T00:30:24.573Z,0
2017-01-30T00:31:24.591Z,0
2017-01-30T00:32:24.199Z,0
2017-01-30T00:33:24.617Z,0
2017-01-30T00:34:24.616Z,0
2017-01-30T00:35:24.630Z,0
2017-01-30T00:36:24.635Z,0
2017-01-30T00:37:24.647Z,0
2017-01-30T00:38:24.667Z,0
2017-01-30T00:39:24.667Z,0
2017-01-30T00:40:24.686Z,0
2017-01-30T00:41:24.700Z,0
2017-01-30T00:42:24.742Z,0
2017-01-30T00:43:24.710Z,0
2017-01-30T00:44:24.731Z,0
2017-01-30T00:45:24.739Z,0
2017-01-30T00:46:24.748Z,0
2017-01-30T00:47:24.761Z,0
2017-01-30T00:48:24.766Z,0
2017-01-30T00:49:24.784Z,0
2017-01-30T00:50:24.788Z,0
2017-01-30T00:51:24.806Z,0
2017-01-30T00:52:24.810Z,0
2017-01-30T00:53:24.428Z,0
2017-01-30T00:54:24.836Z,0
2017-01-30T00:55:24.842Z,0
2017-01-30T00:56:24.862Z,0
2017-01-30T00:57:24.861Z,0
2017-01-30T00:58:24.897Z,0
2017-01-30T00:59:24.893Z,0
2017-01-30T01:00:24.898Z,0
2017-01-30T01:01:24.909Z,0
2017-01-30T01:02:24.923Z,0
2017-01-30T01:03:24.936Z,0
2017-01-30T01:04:24.938Z,0
2017-01-30T01:05:24.955Z,0
2017-01-30T01:06:24.960Z,0
2017-01-30T01:07:24.976Z,0
2017-01-30T01:08:24.986Z,0
2017-01-30T01:09:25.009Z,0
2017-01-30T01:10:25.007Z,0
2017-01-30T01:11:25.016Z,0
2017-01-30T01:12:25.026Z,0
2017-01-30T01:13:24.647Z,0
2017-01-30T01:14:25.083Z,0
2017-01-30T01:15:24.666Z,0
2017-01-30T01:16:25.072Z,0
2017-01-30T01:17:25.089Z,0
2017-01-30T01:18:25.086Z,0
2017-01-30T01:19:25.108Z,0
2017-01-30T01:20:25.114Z,0
2017-01-30T01:21:24.728Z,0
2017-01-30T01:22:25.143Z,0
2017-01-30T01:23:25.148Z,0
2017-01-30T01:24:25.153Z,0
2017-01-30T01:25:25.177Z,0
2017-01-30T01:26:25.183Z,0
2017-01-30T01:27:25.197Z,0
2017-01-30T01:28:25.202Z,0
2017-01-30T01:29:24.814Z,0
2017-01-30T01:30:25.231Z,0
2017-01-30T01:31:25.232Z,0
2017-01-30T01:32:25.257Z,0
2017-01-30T01:33:25.257Z,0
2017-01-30T01:34:25.264Z,0
2017-01-30T01:35:25.277Z,0
2017-01-30T01:36:25.294Z,0
2017-01-30T01:37:25.293Z,0
2017-01-30T01:38:25.308Z,0
2017-01-30T01:39:25.314Z,0
2017-01-30T01:40:25.327Z,0
2017-01-30T01:41:25.343Z,0
2017-01-30T01:42:25.353Z,0
2017-01-30T01:43:25.377Z,0
2017-01-30T01:44:25.375Z,0
2017-01-30T01:45:25.388Z,0
2017-01-30T01:46:25.395Z,0
2017-01-30T01:47:25.399Z,0
2017-01-30T01:48:25.435Z,0
2017-01-30T01:49:25.431Z,0
2017-01-30T01:50:25.434Z,0
2017-01-30T01:51:25.460Z,0
2017-01-30T01:52:25.462Z,0
2017-01-30T01:53:25.460Z,0
2017-01-30T01:54:25.464Z,0
2017-01-30T01:55:25.472Z,0
2017-01-30T01:56:25.484Z,0
2017-01-30T01:57:25.496Z,0
2017-01-30T01:58:25.513Z,0
2017-01-30T01:59:25.518Z,0
2017-01-30T02:00:25.133Z,0
2017-01-30T02:01:25.147Z,0
2017-01-30T02:02:25.577Z,0
2017-01-30T02:03:25.564Z,0
2017-01-30T02:04:25.570Z,0
2017-01-30T02:05:25.583Z,0
2017-01-30T02:06:25.199Z,0
2017-01-30T02:07:25.604Z,0
2017-01-30T02:08:25.623Z,0
2017-01-30T02:09:25.627Z,0
2017-01-30T02:10:25.664Z,0
2017-01-30T02:11:25.646Z,0
2017-01-30T02:12:25.657Z,0
2017-01-30T02:13:25.671Z,0
2017-01-30T02:14:25.680Z,0
2017-01-30T02:15:25.695Z,0
2017-01-30T02:16:25.704Z,0
2017-01-30T02:17:25.716Z,0
2017-01-30T02:18:25.724Z,0
2017-01-30T02:19:25.738Z,0
2017-01-30T02:20:25.893Z,0
2017-01-30T02:21:25.778Z,0
2017-01-30T02:22:25.760Z,0
2017-01-30T02:23:25.775Z,0
2017-01-30T02:24:25.780Z,0
2017-01-30T02:25:25.797Z,0
2017-01-30T02:26:25.806Z,0
2017-01-30T02:27:25.816Z,0
2017-01-30T02:28:25.833Z,0
2017-01-30T02:29:25.885Z,0
2017-01-30T02:30:25.850Z,0
2017-01-30T02:31:25.859Z,0
2017-01-30T02:32:25.898Z,0
2017-01-30T02:33:25.883Z,0
2017-01-30T02:34:25.893Z,0
2017-01-30T02:35:25.513Z,0
2017-01-30T02:36:25.910Z,0
2017-01-30T02:37:25.925Z,0
2017-01-30T02:38:25.938Z,0
2017-01-30T02:39:25.945Z,0
2017-01-30T02:40:25.949Z,0
2017-01-30T02:41:25.567Z,0
2017-01-30T02:42:25.971Z,0
2017-01-30T02:43:25.991Z,0
2017-01-30T02:44:25.604Z,0
2017-01-30T02:45:26.011Z,0
2017-01-30T02:46:26.019Z,0
2017-01-30T02:47:26.024Z,0
2017-01-30T02:48:25.642Z,0
2017-01-30T02:49:25.653Z,0
2017-01-30T02:50:26.075Z,0
2017-01-30T02:51:26.062Z,0
2017-01-30T02:52:26.079Z,0
2017-01-30T02:53:26.123Z,0
2017-01-30T02:54:26.100Z,0
2017-01-30T02:55:26.109Z,0
2017-01-30T02:56:26.123Z,0
2017-01-30T02:57:26.138Z,0
2017-01-30T02:58:26.141Z,0
2017-01-30T02:59:25.763Z,0
2017-01-30T03:00:26.168Z,0
2017-01-30T03:01:26.178Z,0
2017-01-30T03:02:25.796Z,0
2017-01-30T03:03:26.190Z,0
2017-01-30T03:04:26.229Z,0
2017-01-30T03:05:26.208Z,0
2017-01-30T03:06:26.229Z,0
2017-01-30T03:07:26.235Z,0
2017-01-30T03:08:26.244Z,0
2017-01-30T03:09:26.259Z,0
2017-01-30T03:10:26.275Z,0
2017-01-30T03:11:26.284Z,0
2017-01-30T03:12:26.289Z,0
2017-01-30T03:13:25.906Z,0
2017-01-30T03:14:26.307Z,0
2017-01-30T03:15:26.316Z,0
2017-01-30T03:16:25.945Z,0
2017-01-30T03:17:26.346Z,0
2017-01-30T03:18:26.351Z,0
2017-01-30T03:19:26.363Z,0
2017-01-30T03:20:26.370Z,0
2017-01-30T03:21:26.414Z,0
2017-01-30T03:22:25.996Z,0
2017-01-30T03:23:26.406Z,0
2017-01-30T03:24:26.417Z,0
2017-01-30T03:25:26.428Z,0
2017-01-30T03:26:26.470Z,0
2017-01-30T03:27:26.444Z,0
2017-01-30T03:28:26.464Z,0
2017-01-30T03:29:26.465Z,0
2017-01-30T03:30:26.482Z,0
2017-01-30T03:31:26.482Z,0
2017-01-30T03:32:26.103Z,0
2017-01-30T03:33:26.501Z,0
2017-01-30T03:34:26.512Z,0
2017-01-30T03:35:26.526Z,0
2017-01-30T03:36:26.146Z,0
2017-01-30T03:37:26.553Z,0
2017-01-30T03:38:26.563Z,0
2017-01-30T03:39:26.569Z,0
2017-01-30T03:40:26.183Z,0
2017-01-30T03:41:26.591Z,0
2017-01-30T03:42:26.602Z,0
2017-01-30T03:43:26.608Z,0
2017-01-30T03:44:26.623Z,0
2017-01-30T03:45:26.393Z,0
2017-01-30T03:46:26.638Z,0
2017-01-30T03:47:25.869Z,0
2017-01-30T03:48:26.657Z,0
2017-01-30T03:49:26.677Z,0
2017-01-30T03:50:26.685Z,0
2017-01-30T03:51:26.691Z,0
2017-01-30T03:52:26.704Z,0
2017-01-30T03:53:26.711Z,0
2017-01-30T03:54:26.721Z,0
2017-01-30T03:55:26.736Z,0
2017-01-30T03:56:26.353Z,0
2017-01-30T03:57:26.759Z,0
2017-01-30T03:58:26.773Z,0
2017-01-30T03:59:26.814Z,0
2017-01-30T04:00:26.392Z,0
2017-01-30T04:01:26.805Z,0
2017-01-30T04:02:26.807Z,0
2017-01-30T04:03:26.827Z,0
2017-01-30T04:04:26.439Z,0
2017-01-30T04:05:26.841Z,0
2017-01-30T04:06:26.453Z,0
2017-01-30T04:07:26.881Z,0
2017-01-30T04:08:26.874Z,0
2017-01-30T04:09:26.878Z,0
2017-01-30T04:10:26.899Z,0
2017-01-30T04:11:26.506Z,0
2017-01-30T04:12:26.914Z,0
2017-01-30T04:13:26.914Z,0
2017-01-30T04:14:26.936Z,0
2017-01-30T04:15:26.950Z,0
2017-01-30T04:16:26.567Z,0
2017-01-30T04:17:26.974Z,0
2017-01-30T04:18:26.588Z,0
2017-01-30T04:19:26.988Z,0
2017-01-30T04:20:26.992Z,0
2017-01-30T04:21:27.016Z,0
2017-01-30T04:22:26.619Z,0
2017-01-30T04:23:27.052Z,0
2017-01-30T04:24:26.638Z,0
2017-01-30T04:25:27.052Z,0
2017-01-30T04:26:27.061Z,0
2017-01-30T04:27:27.067Z,0
2017-01-30T04:28:27.075Z,0
2017-01-30T04:29:26.697Z,0
2017-01-30T04:30:26.703Z,0
2017-01-30T04:31:27.107Z,0
2017-01-30T04:32:26.718Z,0
2017-01-30T04:33:27.133Z,0
2017-01-30T04:34:27.140Z,0
2017-01-30T04:35:27.146Z,0
2017-01-30T04:36:26.769Z,0
2017-01-30T04:37:27.198Z,0
2017-01-30T04:38:27.187Z,0
2017-01-30T04:39:27.219Z,0
2017-01-30T04:40:27.193Z,0
2017-01-30T04:41:27.217Z,0
2017-01-30T04:42:26.827Z,0
2017-01-30T04:43:26.840Z,0
2017-01-30T04:44:27.237Z,0
2017-01-30T04:45:27.256Z,0
2017-01-30T04:46:26.866Z,0
2017-01-30T04:47:26.484Z,0
2017-01-30T04:48:26.883Z,0
2017-01-30T04:49:27.294Z,0
2017-01-30T04:50:27.303Z,0
2017-01-30T04:51:26.922Z,0
2017-01-30T04:52:27.325Z,0
2017-01-30T04:53:26.939Z,0
2017-01-30T04:54:27.345Z,0
2017-01-30T04:55:26.976Z,0
2017-01-30T04:56:27.389Z,0
2017-01-30T04:57:27.376Z,0
2017-01-30T04:58:27.388Z,0
2017-01-30T04:59:27.004Z,0
2017-01-30T05:00:27.411Z,0
2017-01-30T05:01:27.023Z,0
2017-01-30T05:02:27.427Z,0
2017-01-30T05:03:27.428Z,0
2017-01-30T05:04:27.449Z,0
2017-01-30T05:05:27.453Z,0
2017-01-30T05:06:27.464Z,0
2017-01-30T05:07:27.089Z,0
2017-01-30T05:08:27.486Z,0
2017-01-30T05:09:27.501Z,0
2017-01-30T05:10:27.506Z,0
2017-01-30T05:11:27.522Z,0
2017-01-30T05:12:27.534Z,0
2017-01-30T05:13:27.542Z,0
2017-01-30T05:14:27.544Z,0
2017-01-30T05:15:27.167Z,0
2017-01-30T05:16:27.187Z,0
2017-01-30T05:17:27.189Z,0
2017-01-30T05:18:27.591Z,0
2017-01-30T05:19:27.633Z,0
2017-01-30T05:20:27.638Z,0
2017-01-30T05:21:27.663Z,0
2017-01-30T05:22:27.634Z,0
2017-01-30T05:23:26.855Z,0
2017-01-30T05:24:27.651Z,0
2017-01-30T05:25:27.273Z,0
2017-01-30T05:26:27.678Z,0
2017-01-30T05:27:27.686Z,0
2017-01-30T05:28:27.299Z,0
2017-01-30T05:29:27.308Z,0
2017-01-30T05:30:27.715Z,0
2017-01-30T05:31:27.730Z,0
2017-01-30T05:32:27.739Z,0
2017-01-30T05:33:27.747Z,0
2017-01-30T05:34:27.756Z,0
2017-01-30T05:35:27.769Z,0
2017-01-30T05:36:27.783Z,0
2017-01-30T05:37:27.782Z,0
2017-01-30T05:38:27.793Z,0
2017-01-30T05:39:27.806Z,0
2017-01-30T05:40:27.419Z,0
2017-01-30T05:41:27.826Z,0
2017-01-30T05:42:27.834Z,0
2017-01-30T05:43:27.854Z,0
2017-01-30T05:44:27.466Z,0
2017-01-30T05:45:27.862Z,0
2017-01-30T05:46:27.915Z,0
2017-01-30T05:47:27.895Z,0
2017-01-30T05:48:27.896Z,0
2017-01-30T05:49:27.921Z,0
2017-01-30T05:50:27.920Z,0
2017-01-30T05:51:27.929Z,0
2017-01-30T05:52:27.951Z,0
2017-01-30T05:53:27.959Z,0
2017-01-30T05:54:27.968Z,0
2017-01-30T05:55:27.981Z,0
2017-01-30T05:56:27.587Z,0
2017-01-30T05:57:27.987Z,0
2017-01-30T05:58:28.010Z,0
2017-01-30T05:59:27.618Z,0
2017-01-30T06:00:28.026Z,0
2017-01-30T06:01:28.036Z,0
2017-01-30T06:02:28.038Z,0
2017-01-30T06:03:28.053Z,0
2017-01-30T06:04:27.668Z,0
2017-01-30T06:05:28.075Z,0
2017-01-30T06:06:28.105Z,0
2017-01-30T06:07:28.099Z,0
2017-01-30T06:08:27.327Z,0
2017-01-30T06:09:28.118Z,0
2017-01-30T06:10:27.337Z,0
2017-01-30T06:11:28.137Z,0
2017-01-30T06:12:28.144Z,0
2017-01-30T06:13:28.181Z,0
2017-01-30T06:14:28.209Z,0
2017-01-30T06:15:28.187Z,0
2017-01-30T06:16:27.794Z,0
2017-01-30T06:17:28.196Z,0
2017-01-30T06:18:28.206Z,0
2017-01-30T06:19:28.216Z,0
2017-01-30T06:20:28.226Z,0
2017-01-30T06:21:28.232Z,0
2017-01-30T06:22:27.858Z,0
2017-01-30T06:23:28.259Z,0
2017-01-30T06:24:28.272Z,0
2017-01-30T06:25:28.274Z,0
2017-01-30T06:26:28.284Z,0
2017-01-30T06:27:27.903Z,0
2017-01-30T06:28:27.922Z,4
2017-01-30T06:29:28.325Z,0
2017-01-30T06:30:28.329Z,0
2017-01-30T06:31:28.372Z,4
2017-01-30T06:32:28.360Z,0
2017-01-30T06:33:28.361Z,4
2017-01-30T06:34:27.972Z,4
2017-01-30T06:35:27.988Z,4
2017-01-30T06:36:28.384Z,8
2017-01-30T06:37:28.398Z,4
2017-01-30T06:38:28.012Z,4
2017-01-30T06:39:28.425Z,8
2017-01-30T06:40:28.427Z,8
2017-01-30T06:41:28.470Z,12
2017-01-30T06:42:28.477Z,12
2017-01-30T06:43:28.457Z,12
2017-01-30T06:44:28.470Z,12
2017-01-30T06:45:28.478Z,16
2017-01-30T06:46:28.095Z,20
2017-01-30T06:47:28.110Z,20
2017-01-30T06:48:28.519Z,24
2017-01-30T06:49:28.529Z,24
2017-01-30T06:50:28.532Z,24
2017-01-30T06:51:28.540Z,28
2017-01-30T06:52:28.556Z,32
2017-01-30T06:53:28.593Z,32
2017-01-30T06:54:28.566Z,36
2017-01-30T06:55:28.583Z,40
2017-01-30T06:56:28.591Z,40
2017-01-30T06:57:28.208Z,44
2017-01-30T06:58:28.615Z,44
2017-01-30T06:59:28.230Z,48
2017-01-30T07:00:28.634Z,52
2017-01-30T07:01:28.646Z,52
2017-01-30T07:02:28.655Z,56
2017-01-30T07:03:28.669Z,60
2017-01-30T07:04:28.678Z,60
2017-01-30T07:05:28.695Z,64
2017-01-30T07:06:28.305Z,68
2017-01-30T07:07:28.314Z,72
2017-01-30T07:08:28.720Z,76
2017-01-30T07:09:28.335Z,84
2017-01-30T07:10:28.734Z,88
2017-01-30T07:11:28.753Z,88
2017-01-30T07:12:28.787Z,96
2017-01-30T07:13:28.768Z,100
2017-01-30T07:14:28.774Z,104
2017-01-30T07:15:28.791Z,108
2017-01-30T07:16:28.405Z,112
2017-01-30T07:17:28.807Z,120
2017-01-30T07:18:28.829Z,120
2017-01-30T07:19:28.839Z,128
2017-01-30T07:20:28.835Z,128
2017-01-30T07:21:28.450Z,136
2017-01-30T07:22:28.461Z,144
2017-01-30T07:23:28.882Z,156
2017-01-30T07:24:28.885Z,156
2017-01-30T07:25:28.888Z,156
2017-01-30T07:26:28.902Z,164
2017-01-30T07:27:28.910Z,172
2017-01-30T07:28:28.931Z,172
2017-01-30T07:29:28.934Z,176
2017-01-30T07:30:28.940Z,176
2017-01-30T07:31:28.982Z,180
2017-01-30T07:32:28.959Z,180
2017-01-30T07:33:28.576Z,184
2017-01-30T07:34:28.586Z,192
2017-01-30T07:35:28.994Z,200
2017-01-30T07:36:28.611Z,204
2017-01-30T07:37:29.009Z,200
2017-01-30T07:38:29.024Z,196
2017-01-30T07:39:29.031Z,196
2017-01-30T07:40:29.044Z,204
2017-01-30T07:41:29.062Z,208
2017-01-30T07:42:28.668Z,212
2017-01-30T07:43:29.076Z,216
2017-01-30T07:44:28.697Z,220
2017-01-30T07:45:28.702Z,232
2017-01-30T07:46:29.113Z,244
2017-01-30T07:47:28.733Z,252
2017-01-30T07:48:29.135Z,264
2017-01-30T07:49:29.135Z,280
2017-01-30T07:50:28.757Z,296
2017-01-30T07:51:29.151Z,304
2017-01-30T07:52:28.769Z,320
2017-01-30T07:53:29.172Z,340
2017-01-30T07:54:29.194Z,352
2017-01-30T07:55:28.801Z,368
2017-01-30T07:56:29.205Z,380
2017-01-30T07:57:29.225Z,400
2017-01-30T07:58:29.225Z,424
2017-01-30T07:59:29.242Z,456
2017-01-30T08:00:28.457Z,488
2017-01-30T08:01:29.255Z,484
2017-01-30T08:02:29.268Z,476
2017-01-30T08:03:29.280Z,476
2017-01-30T08:04:28.891Z,488
2017-01-30T08:05:29.302Z,504
2017-01-30T08:06:29.299Z,540
2017-01-30T08:07:29.315Z,576
2017-01-30T08:08:28.938Z,584
2017-01-30T08:09:29.338Z,596
2017-01-30T08:10:29.348Z,604
2017-01-30T08:11:29.357Z,608
2017-01-30T08:12:29.381Z,588
2017-01-30T08:13:29.017Z,544
2017-01-30T08:14:29.391Z,492
2017-01-30T08:15:29.395Z,436
2017-01-30T08:16:29.440Z,392
2017-01-30T08:17:29.417Z,376
2017-01-30T08:18:29.432Z,384
2017-01-30T08:19:29.454Z,392
2017-01-30T08:20:29.464Z,376
2017-01-30T08:21:29.460Z,376
2017-01-30T08:22:29.483Z,408
2017-01-30T08:23:29.493Z,396
2017-01-30T08:24:29.496Z,392
2017-01-30T08:25:29.516Z,368
2017-01-30T08:26:29.514Z,332
2017-01-30T08:27:29.556Z,292
2017-01-30T08:28:29.576Z,272
2017-01-30T08:29:29.548Z,276
2017-01-30T08:30:29.550Z,296
2017-01-30T08:31:29.566Z,328
2017-01-30T08:32:29.574Z,372
2017-01-30T08:33:29.585Z,416
2017-01-30T08:34:29.599Z,456
2017-01-30T08:35:29.610Z,480
2017-01-30T08:36:29.661Z,496
2017-01-30T08:37:29.639Z,508
2017-01-30T08:38:29.640Z,524
2017-01-30T08:39:29.650Z,536
2017-01-30T08:40:29.654Z,540
2017-01-30T08:41:29.277Z,544
2017-01-30T08:42:29.684Z,544
2017-01-30T08:43:29.687Z,544
2017-01-30T08:44:29.706Z,540
2017-01-30T08:45:29.744Z,536
2017-01-30T08:46:29.723Z,556
2017-01-30T08:47:29.739Z,592
2017-01-30T08:48:29.746Z,636
2017-01-30T08:49:29.753Z,680
2017-01-30T08:50:29.762Z,728
2017-01-30T08:51:29.775Z,788
2017-01-30T08:52:29.784Z,832
2017-01-30T08:53:29.792Z,856
2017-01-30T08:54:29.808Z,888
2017-01-30T08:55:29.816Z,956
2017-01-30T08:56:29.825Z,992
2017-01-30T08:57:29.840Z,1016
2017-01-30T08:58:29.849Z,1032
2017-01-30T08:59:29.859Z,1060
2017-01-30T09:00:29.867Z,1080
2017-01-30T09:01:29.873Z,1060
2017-01-30T09:02:29.889Z,1028
2017-01-30T09:03:29.905Z,992
2017-01-30T09:04:29.522Z,972
2017-01-30T09:05:29.524Z,944
2017-01-30T09:06:29.532Z,928
2017-01-30T09:07:29.942Z,920
2017-01-30T09:08:29.957Z,916
2017-01-30T09:09:29.972Z,956
2017-01-30T09:10:29.973Z,984
2017-01-30T09:11:29.985Z,1032
2017-01-30T09:12:29.603Z,1080
2017-01-30T09:13:30.006Z,1140
2017-01-30T09:14:30.015Z,1160
2017-01-30T09:15:30.027Z,1160
2017-01-30T09:16:30.035Z,1152
2017-01-30T09:17:30.044Z,1128
2017-01-30T09:18:30.060Z,1072
2017-01-30T09:19:30.070Z,1020
2017-01-30T09:20:30.079Z,1000
2017-01-30T09:21:29.691Z,988
2017-01-30T09:22:30.102Z,976
2017-01-30T09:23:29.710Z,960
2017-01-30T09:24:30.119Z,932
2017-01-30T09:25:30.132Z,936
2017-01-30T09:26:30.138Z,948
2017-01-30T09:27:30.147Z,940
2017-01-30T09:28:30.188Z,928
2017-01-30T09:29:29.781Z,920
2017-01-30T09:30:30.193Z,888
2017-01-30T09:31:30.203Z,808
2017-01-30T09:32:30.209Z,852
2017-01-30T09:33:30.214Z,880
2017-01-30T09:34:30.231Z,900
2017-01-30T09:35:30.252Z,948
2017-01-30T09:36:29.855Z,1016
2017-01-30T09:37:30.258Z,1040
2017-01-30T09:38:30.273Z,1004
2017-01-30T09:39:30.281Z,960
2017-01-30T09:40:30.290Z,924
2017-01-30T09:41:29.510Z,904
2017-01-30T09:42:29.922Z,920
2017-01-30T09:43:30.329Z,948
2017-01-30T09:44:30.340Z,952
2017-01-30T09:45:30.349Z,956
2017-01-30T09:46:30.367Z,948
2017-01-30T09:47:30.367Z,904
2017-01-30T09:48:30.379Z,856
2017-01-30T09:49:30.392Z,804
2017-01-30T09:50:30.408Z,744
2017-01-30T09:51:30.023Z,660
2017-01-30T09:52:30.424Z,580
2017-01-30T09:53:30.441Z,556
2017-01-30T09:54:30.445Z,532
2017-01-30T09:55:30.458Z,528
2017-01-30T09:56:30.069Z,540
2017-01-30T09:57:30.085Z,528
2017-01-30T09:58:30.497Z,496
2017-01-30T09:59:30.507Z,496
2017-01-30T10:00:30.509Z,536
2017-01-30T10:01:30.520Z,588
2017-01-30T10:02:30.535Z,668
2017-01-30T10:03:30.542Z,712
2017-01-30T10:04:30.159Z,748
2017-01-30T10:05:30.568Z,764
2017-01-30T10:06:30.579Z,788
2017-01-30T10:07:30.622Z,820
2017-01-30T10:08:30.206Z,860
2017-01-30T10:09:30.610Z,848
2017-01-30T10:10:30.247Z,868
2017-01-30T10:11:30.629Z,892
2017-01-30T10:12:30.645Z,896
2017-01-30T10:13:30.655Z,880
2017-01-30T10:14:30.272Z,856
2017-01-30T10:15:30.674Z,828
2017-01-30T10:16:30.740Z,788
2017-01-30T10:17:30.695Z,744
2017-01-30T10:18:30.708Z,684
2017-01-30T10:19:30.324Z,624
2017-01-30T10:20:30.735Z,576
2017-01-30T10:21:30.748Z,536
2017-01-30T10:22:30.355Z,520
2017-01-30T10:23:30.372Z,512
2017-01-30T10:24:30.783Z,504
2017-01-30T10:25:30.794Z,508
2017-01-30T10:26:30.800Z,516
2017-01-30T10:27:30.807Z,520
2017-01-30T10:28:30.825Z,516
2017-01-30T10:29:30.838Z,532
2017-01-30T10:30:30.844Z,548
2017-01-30T10:31:30.853Z,572
2017-01-30T10:32:30.869Z,608
2017-01-30T10:33:30.874Z,628
2017-01-30T10:34:30.883Z,652
2017-01-30T10:35:30.901Z,668
2017-01-30T10:36:30.910Z,676
2017-01-30T10:37:30.922Z,708
2017-01-30T10:38:30.943Z,732
2017-01-30T10:39:30.941Z,740
2017-01-30T10:40:30.958Z,732
2017-01-30T10:41:30.961Z,720
2017-01-30T10:42:30.980Z,684
2017-01-30T10:43:30.991Z,696
2017-01-30T10:44:31.002Z,760
2017-01-30T10:45:31.007Z,800
2017-01-30T10:46:31.037Z,836
2017-01-30T10:47:31.036Z,844
2017-01-30T10:48:31.047Z,856
2017-01-30T10:49:31.057Z,896
2017-01-30T10:50:31.067Z,844
2017-01-30T10:51:31.115Z,840
2017-01-30T10:52:31.091Z,856
2017-01-30T10:53:31.105Z,844
2017-01-30T10:54:30.721Z,780
2017-01-30T10:55:31.135Z,728
2017-01-30T10:56:31.133Z,664
2017-01-30T10:57:30.756Z,600
2017-01-30T10:58:31.169Z,660
2017-01-30T10:59:31.171Z,680
2017-01-30T11:00:31.179Z,672
2017-01-30T11:01:31.192Z,576
2017-01-30T11:02:31.213Z,540
2017-01-30T11:03:31.216Z,536
2017-01-30T11:04:30.831Z,544
2017-01-30T11:05:31.277Z,544
2017-01-30T11:06:31.254Z,528
2017-01-30T11:07:31.263Z,504
2017-01-30T11:08:31.284Z,488
2017-01-30T11:09:31.291Z,508
2017-01-30T11:10:31.294Z,516
2017-01-30T11:11:31.309Z,500
2017-01-30T11:12:31.315Z,516
2017-01-30T11:13:31.333Z,484
2017-01-30T11:14:31.342Z,456
2017-01-30T11:15:31.357Z,452
2017-01-30T11:16:31.380Z,476
2017-01-30T11:17:31.378Z,512
2017-01-30T11:18:31.397Z,520
2017-01-30T11:19:31.008Z,532
2017-01-30T11:20:31.050Z,556
2017-01-30T11:21:31.426Z,556
2017-01-30T11:22:31.470Z,540
2017-01-30T11:23:31.447Z,536
2017-01-30T11:24:31.064Z,532
2017-01-30T11:25:31.497Z,540
2017-01-30T11:26:31.483Z,544
2017-01-30T11:27:31.500Z,532
2017-01-30T11:28:31.504Z,544
2017-01-30T11:29:31.521Z,552
2017-01-30T11:30:31.531Z,532
2017-01-30T11:31:31.536Z,540
2017-01-30T11:32:31.163Z,544
2017-01-30T11:33:31.561Z,520
2017-01-30T11:34:31.574Z,484
2017-01-30T11:35:31.587Z,472
2017-01-30T11:36:31.200Z,464
2017-01-30T11:37:31.609Z,444
2017-01-30T11:38:31.622Z,412
2017-01-30T11:39:31.629Z,392
2017-01-30T11:40:31.650Z,376
2017-01-30T11:41:31.652Z,360
2017-01-30T11:42:31.660Z,360
2017-01-30T11:43:31.692Z,368
2017-01-30T11:44:31.685Z,368
2017-01-30T11:45:31.720Z,380
2017-01-30T11:46:31.717Z,380
2017-01-30T11:47:31.724Z,396
2017-01-30T11:48:30.975Z,416
2017-01-30T11:49:31.755Z,424
2017-01-30T11:50:31.758Z,428
2017-01-30T11:51:31.377Z,436
2017-01-30T11:52:31.394Z,452
2017-01-30T11:53:31.793Z,456
2017-01-30T11:54:31.410Z,468
2017-01-30T11:55:31.831Z,472
2017-01-30T11:56:31.833Z,508
2017-01-30T11:57:31.840Z,560
2017-01-30T11:58:31.849Z,580
2017-01-30T11:59:31.865Z,592
2017-01-30T12:00:31.475Z,596
2017-01-30T12:01:31.489Z,604
2017-01-30T12:02:31.906Z,604
2017-01-30T12:03:31.908Z,584
2017-01-30T12:04:31.922Z,584
2017-01-30T12:05:31.935Z,584
2017-01-30T12:06:31.945Z,580
2017-01-30T12:07:31.958Z,588
2017-01-30T12:08:31.176Z,592
2017-01-30T12:09:31.984Z,592
2017-01-30T12:10:31.993Z,596
2017-01-30T12:11:32.033Z,596
2017-01-30T12:12:32.018Z,584
2017-01-30T12:13:31.632Z,600
2017-01-30T12:14:32.038Z,612
2017-01-30T12:15:32.047Z,648
2017-01-30T12:16:32.064Z,692
2017-01-30T12:17:32.072Z,700
2017-01-30T12:18:32.089Z,708
2017-01-30T12:19:32.095Z,732
2017-01-30T12:20:31.716Z,776
2017-01-30T12:21:31.724Z,824
2017-01-30T12:22:31.741Z,884
2017-01-30T12:23:32.145Z,960
2017-01-30T12:24:32.161Z,1008
2017-01-30T12:25:32.166Z,1032
2017-01-30T12:26:32.174Z,1040
2017-01-30T12:27:32.185Z,1012
2017-01-30T12:28:32.212Z,976
2017-01-30T12:29:32.244Z,952
2017-01-30T12:30:32.223Z,952
2017-01-30T12:31:31.860Z,972
2017-01-30T12:32:32.253Z,1016
2017-01-30T12:33:31.867Z,1060
2017-01-30T12:34:32.266Z,1104
2017-01-30T12:35:31.894Z,1112
2017-01-30T12:36:32.297Z,1132
2017-01-30T12:37:32.322Z,1164
2017-01-30T12:38:31.920Z,1180
2017-01-30T12:39:31.935Z,1192
2017-01-30T12:40:32.372Z,1204
2017-01-30T12:41:32.355Z,1228
2017-01-30T12:42:32.386Z,1268
2017-01-30T12:43:32.383Z,1300
2017-01-30T12:44:32.391Z,1312
2017-01-30T12:45:32.404Z,1300
2017-01-30T12:46:32.416Z,1268
2017-01-30T12:47:32.459Z,1252
2017-01-30T12:48:32.040Z,1260
2017-01-30T12:49:32.480Z,1280
2017-01-30T12:50:32.457Z,1308
2017-01-30T12:51:32.479Z,1316
2017-01-30T12:52:32.481Z,1272
2017-01-30T12:53:32.108Z,1160
2017-01-30T12:54:32.111Z,1088
2017-01-30T12:55:32.523Z,1044
2017-01-30T12:56:32.540Z,988
2017-01-30T12:57:32.549Z,940
2017-01-30T12:58:32.559Z,912
2017-01-30T12:59:32.570Z,884
2017-01-30T13:00:32.592Z,832
2017-01-30T13:01:32.197Z,804
2017-01-30T13:02:32.217Z,792
2017-01-30T13:03:32.617Z,836
2017-01-30T13:04:32.227Z,896
2017-01-30T13:05:32.640Z,852
2017-01-30T13:06:32.663Z,780
2017-01-30T13:07:32.667Z,776
2017-01-30T13:08:32.674Z,752
2017-01-30T13:09:32.693Z,680
2017-01-30T13:10:32.701Z,580
2017-01-30T13:11:32.713Z,548
2017-01-30T13:12:32.728Z,516
2017-01-30T13:13:32.742Z,528
2017-01-30T13:14:32.775Z,536
2017-01-30T13:15:32.759Z,544
2017-01-30T13:16:32.783Z,528
2017-01-30T13:17:32.789Z,496
2017-01-30T13:18:32.793Z,476
2017-01-30T13:19:32.421Z,456
2017-01-30T13:20:32.445Z,428
2017-01-30T13:21:32.463Z,424
2017-01-30T13:22:32.454Z,428
2017-01-30T13:23:32.857Z,452
2017-01-30T13:24:32.868Z,484
2017-01-30T13:25:32.883Z,508
2017-01-30T13:26:32.500Z,508
2017-01-30T13:27:32.911Z,488
2017-01-30T13:28:32.917Z,452
2017-01-30T13:29:32.928Z,424
2017-01-30T13:30:32.949Z,436
2017-01-30T13:31:32.949Z,408
2017-01-30T13:32:32.575Z,408
2017-01-30T13:33:32.981Z,420
2017-01-30T13:34:32.593Z,424
2017-01-30T13:35:32.607Z,444
2017-01-30T13:36:33.015Z,448
2017-01-30T13:37:32.628Z,460
2017-01-30T13:38:33.035Z,504
2017-01-30T13:39:33.052Z,540
2017-01-30T13:40:33.064Z,556
2017-01-30T13:41:33.079Z,576
2017-01-30T13:42:33.084Z,604
2017-01-30T13:43:32.704Z,612
2017-01-30T13:44:33.112Z,564
2017-01-30T13:45:33.118Z,548
2017-01-30T13:46:33.131Z,516
2017-01-30T13:47:33.141Z,492
2017-01-30T13:48:33.157Z,488
2017-01-30T13:49:33.174Z,468
2017-01-30T13:50:33.182Z,464
2017-01-30T13:51:32.807Z,468
2017-01-30T13:52:33.208Z,484
2017-01-30T13:53:33.217Z,504
2017-01-30T13:54:32.829Z,580
2017-01-30T13:55:32.841Z,628
2017-01-30T13:56:33.248Z,608
2017-01-30T13:57:33.271Z,608
2017-01-30T13:58:33.275Z,604
2017-01-30T13:59:33.288Z,564
2017-01-30T14:00:33.306Z,524
2017-01-30T14:01:33.310Z,500
2017-01-30T14:02:33.326Z,472
2017-01-30T14:03:33.332Z,468
2017-01-30T14:04:33.353Z,492
2017-01-30T14:05:33.361Z,508
2017-01-30T14:06:33.391Z,532
2017-01-30T14:07:33.386Z,552
2017-01-30T14:08:33.398Z,620
2017-01-30T14:09:33.418Z,636
2017-01-30T14:10:33.028Z,592
2017-01-30T14:11:33.437Z,560
2017-01-30T14:12:33.441Z,480
2017-01-30T14:13:33.458Z,400